sensor_id;sensor_type;location;lat;lon;timestamp;pressure;altitude;pressure_sealevel;temperature;humidity
6395;BME280;3230;42.588;23.358;2024-01-15T00:01:07;90341.38;;;-3.27;96.69
6395;BME280;3230;42.588;23.358;2024-01-15T00:03:33;90333.91;;;-3.29;96.65
6395;BME280;3230;42.588;23.358;2024-01-15T00:05:58;90342.56;;;-3.30;96.48
6395;BME280;3230;42.588;23.358;2024-01-15T00:08:23;90330.63;;;-3.43;96.61
6395;BME280;3230;42.588;23.358;2024-01-15T00:10:49;90315.88;;;-3.47;96.73
6395;BME280;3230;42.588;23.358;2024-01-15T00:13:14;90334.97;;;-3.43;97.08
6395;BME280;3230;42.588;23.358;2024-01-15T00:15:40;90330.09;;;-3.51;98.12
6395;BME280;3230;42.588;23.358;2024-01-15T00:18:05;90327.69;;;-3.46;98.94
6395;BME280;3230;42.588;23.358;2024-01-15T00:20:31;90320.59;;;-3.44;98.95
6395;BME280;3230;42.588;23.358;2024-01-15T00:22:56;90321.59;;;-3.45;99.12
6395;BME280;3230;42.588;23.358;2024-01-15T00:25:22;90323.41;;;-3.53;99.55
6395;BME280;3230;42.588;23.358;2024-01-15T00:27:48;90329.25;;;-3.45;99.44
6395;BME280;3230;42.588;23.358;2024-01-15T00:30:13;90328.53;;;-3.53;99.89
6395;BME280;3230;42.588;23.358;2024-01-15T00:32:39;90328.34;;;-3.58;99.83
6395;BME280;3230;42.588;23.358;2024-01-15T00:35:04;90330.00;;;-3.70;100.00
6395;BME280;3230;42.588;23.358;2024-01-15T00:37:30;90325.81;;;-3.64;100.00
6395;BME280;3230;42.588;23.358;2024-01-15T00:39:55;90324.97;;;-3.51;100.00
6395;BME280;3230;42.588;23.358;2024-01-15T00:42:21;90331.63;;;-3.44;100.00
6395;BME280;3230;42.588;23.358;2024-01-15T00:44:46;90328.66;;;-3.41;100.00
6395;BME280;3230;42.588;23.358;2024-01-15T00:47:11;90330.91;;;-3.58;100.00
6395;BME280;3230;42.588;23.358;2024-01-15T00:49:37;90323.31;;;-3.71;100.00
6395;BME280;3230;42.588;23.358;2024-01-15T00:52:02;90327.63;;;-3.72;100.00
6395;BME280;3230;42.588;23.358;2024-01-15T00:54:28;90318.69;;;-3.56;100.00
6395;BME280;3230;42.588;23.358;2024-01-15T00:56:53;90316.47;;;-3.45;100.00
6395;BME280;3230;42.588;23.358;2024-01-15T00:59:20;90312.69;;;-3.43;100.00
6395;BME280;3230;42.588;23.358;2024-01-15T01:01:46;90324.50;;;-3.42;100.00
6395;BME280;3230;42.588;23.358;2024-01-15T01:04:12;90310.50;;;-3.39;100.00
6395;BME280;3230;42.588;23.358;2024-01-15T01:06:37;90316.63;;;-3.40;100.00
6395;BME280;3230;42.588;23.358;2024-01-15T01:09:03;90315.88;;;-3.47;100.00
6395;BME280;3230;42.588;23.358;2024-01-15T01:11:28;90307.44;;;-3.55;100.00
6395;BME280;3230;42.588;23.358;2024-01-15T01:13:54;90318.63;;;-3.42;100.00
6395;BME280;3230;42.588;23.358;2024-01-15T01:16:19;90327.38;;;-3.57;100.00
6395;BME280;3230;42.588;23.358;2024-01-15T01:18:45;90315.50;;;-3.51;100.00
6395;BME280;3230;42.588;23.358;2024-01-15T01:21:10;90305.59;;;-3.41;100.00
6395;BME280;3230;42.588;23.358;2024-01-15T01:23:35;90305.88;;;-3.56;100.00
6395;BME280;3230;42.588;23.358;2024-01-15T01:26:01;90300.47;;;-3.41;100.00
6395;BME280;3230;42.588;23.358;2024-01-15T01:28:27;90291.88;;;-3.28;100.00
6395;BME280;3230;42.588;23.358;2024-01-15T01:30:53;90298.34;;;-3.18;100.00
6395;BME280;3230;42.588;23.358;2024-01-15T01:33:19;90289.38;;;-3.34;100.00
6395;BME280;3230;42.588;23.358;2024-01-15T01:35:45;90290.91;;;-3.27;100.00
6395;BME280;3230;42.588;23.358;2024-01-15T01:38:12;90292.91;;;-3.29;100.00
6395;BME280;3230;42.588;23.358;2024-01-15T01:40:37;90291.00;;;-3.40;100.00
6395;BME280;3230;42.588;23.358;2024-01-15T01:43:04;90299.50;;;-3.40;100.00
6395;BME280;3230;42.588;23.358;2024-01-15T01:45:30;90293.00;;;-3.42;100.00
6395;BME280;3230;42.588;23.358;2024-01-15T01:47:55;90296.56;;;-3.43;100.00
6395;BME280;3230;42.588;23.358;2024-01-15T01:50:21;90291.25;;;-3.48;100.00
6395;BME280;3230;42.588;23.358;2024-01-15T01:52:47;90297.84;;;-3.59;100.00
6395;BME280;3230;42.588;23.358;2024-01-15T01:55:13;90288.41;;;-3.65;100.00
6395;BME280;3230;42.588;23.358;2024-01-15T01:57:40;90292.91;;;-3.61;100.00
6395;BME280;3230;42.588;23.358;2024-01-15T02:00:06;90284.66;;;-3.63;100.00
6395;BME280;3230;42.588;23.358;2024-01-15T02:02:32;90282.38;;;-3.78;100.00
6395;BME280;3230;42.588;23.358;2024-01-15T02:04:57;90270.31;;;-3.71;100.00
6395;BME280;3230;42.588;23.358;2024-01-15T02:07:23;90275.81;;;-3.67;100.00
6395;BME280;3230;42.588;23.358;2024-01-15T02:09:49;90288.44;;;-4.04;100.00
6395;BME280;3230;42.588;23.358;2024-01-15T02:12:15;90282.66;;;-3.93;100.00
6395;BME280;3230;42.588;23.358;2024-01-15T02:14:41;90281.25;;;-3.89;100.00
6395;BME280;3230;42.588;23.358;2024-01-15T02:17:06;90268.81;;;-3.85;100.00
6395;BME280;3230;42.588;23.358;2024-01-15T02:19:31;90255.47;;;-3.87;100.00
6395;BME280;3230;42.588;23.358;2024-01-15T02:21:57;90256.03;;;-3.85;100.00
6395;BME280;3230;42.588;23.358;2024-01-15T02:24:22;90263.75;;;-3.92;100.00
6395;BME280;3230;42.588;23.358;2024-01-15T02:26:48;90245.31;;;-4.00;100.00
6395;BME280;3230;42.588;23.358;2024-01-15T02:29:14;90247.66;;;-3.99;100.00
6395;BME280;3230;42.588;23.358;2024-01-15T02:31:40;90242.94;;;-4.02;100.00
6395;BME280;3230;42.588;23.358;2024-01-15T02:34:06;90248.41;;;-3.92;100.00
6395;BME280;3230;42.588;23.358;2024-01-15T02:36:33;90228.28;;;-3.88;100.00
6395;BME280;3230;42.588;23.358;2024-01-15T02:38:59;90222.97;;;-3.87;100.00
6395;BME280;3230;42.588;23.358;2024-01-15T02:41:25;90216.47;;;-3.89;100.00
6395;BME280;3230;42.588;23.358;2024-01-15T02:43:50;90207.84;;;-3.95;100.00
6395;BME280;3230;42.588;23.358;2024-01-15T02:46:16;90211.00;;;-3.93;100.00
6395;BME280;3230;42.588;23.358;2024-01-15T02:48:41;90190.31;;;-3.91;100.00
6395;BME280;3230;42.588;23.358;2024-01-15T02:51:08;90201.81;;;-3.75;100.00
6395;BME280;3230;42.588;23.358;2024-01-15T02:53:33;90195.84;;;-3.69;100.00
6395;BME280;3230;42.588;23.358;2024-01-15T02:55:59;90180.84;;;-3.65;100.00
6395;BME280;3230;42.588;23.358;2024-01-15T02:58:24;90202.03;;;-3.51;100.00
6395;BME280;3230;42.588;23.358;2024-01-15T03:00:50;90189.84;;;-3.56;100.00
6395;BME280;3230;42.588;23.358;2024-01-15T03:03:15;90201.19;;;-3.45;100.00
6395;BME280;3230;42.588;23.358;2024-01-15T03:05:40;90188.44;;;-3.52;100.00
6395;BME280;3230;42.588;23.358;2024-01-15T03:08:06;90186.81;;;-3.46;100.00
6395;BME280;3230;42.588;23.358;2024-01-15T03:10:32;90190.47;;;-3.35;100.00
6395;BME280;3230;42.588;23.358;2024-01-15T03:12:58;90195.66;;;-3.42;100.00
6395;BME280;3230;42.588;23.358;2024-01-15T03:15:24;90193.19;;;-3.30;100.00
6395;BME280;3230;42.588;23.358;2024-01-15T03:17:49;90201.81;;;-3.25;100.00
6395;BME280;3230;42.588;23.358;2024-01-15T03:20:15;90178.97;;;-3.26;100.00
6395;BME280;3230;42.588;23.358;2024-01-15T03:22:40;90199.03;;;-3.23;100.00
6395;BME280;3230;42.588;23.358;2024-01-15T03:25:06;90184.38;;;-3.16;100.00
6395;BME280;3230;42.588;23.358;2024-01-15T03:27:32;90199.47;;;-3.08;99.99
6395;BME280;3230;42.588;23.358;2024-01-15T03:29:57;90192.16;;;-3.04;99.30
6395;BME280;3230;42.588;23.358;2024-01-15T03:32:23;90186.59;;;-3.01;98.70
6395;BME280;3230;42.588;23.358;2024-01-15T03:34:48;90171.38;;;-2.96;98.38
6395;BME280;3230;42.588;23.358;2024-01-15T03:37:14;90166.31;;;-3.02;98.34
6395;BME280;3230;42.588;23.358;2024-01-15T03:39:40;90163.81;;;-3.09;98.77
6395;BME280;3230;42.588;23.358;2024-01-15T03:42:06;90176.06;;;-3.11;98.91
6395;BME280;3230;42.588;23.358;2024-01-15T03:44:31;90168.34;;;-3.30;100.00
6395;BME280;3230;42.588;23.358;2024-01-15T03:46:57;90172.69;;;-3.30;100.00
6395;BME280;3230;42.588;23.358;2024-01-15T03:49:23;90168.59;;;-3.13;100.00
6395;BME280;3230;42.588;23.358;2024-01-15T03:51:48;90171.91;;;-2.94;100.00
6395;BME280;3230;42.588;23.358;2024-01-15T03:54:14;90172.22;;;-3.02;98.93
6395;BME280;3230;42.588;23.358;2024-01-15T03:56:39;90173.78;;;-3.01;98.72
6395;BME280;3230;42.588;23.358;2024-01-15T03:59:04;90168.66;;;-3.01;99.00
6395;BME280;3230;42.588;23.358;2024-01-15T04:01:30;90168.59;;;-2.94;98.68
6395;BME280;3230;42.588;23.358;2024-01-15T04:03:55;90177.28;;;-2.95;98.49
6395;BME280;3230;42.588;23.358;2024-01-15T04:06:21;90163.31;;;-2.99;98.31
6395;BME280;3230;42.588;23.358;2024-01-15T04:08:46;90170.44;;;-3.01;98.19
6395;BME280;3230;42.588;23.358;2024-01-15T04:11:18;90172.78;;;-3.00;97.83
6395;BME280;3230;42.588;23.358;2024-01-15T04:13:44;90175.78;;;-3.03;97.85
6395;BME280;3230;42.588;23.358;2024-01-15T04:16:09;90168.41;;;-3.18;97.96
6395;BME280;3230;42.588;23.358;2024-01-15T04:18:34;90159.81;;;-3.05;97.79
6395;BME280;3230;42.588;23.358;2024-01-15T04:21:00;90156.28;;;-3.04;97.32
6395;BME280;3230;42.588;23.358;2024-01-15T04:23:25;90164.81;;;-3.10;97.40
6395;BME280;3230;42.588;23.358;2024-01-15T04:25:50;90146.50;;;-3.14;97.34
6395;BME280;3230;42.588;23.358;2024-01-15T04:28:16;90164.72;;;-3.03;97.23
6395;BME280;3230;42.588;23.358;2024-01-15T04:30:41;90152.56;;;-3.08;97.00
6395;BME280;3230;42.588;23.358;2024-01-15T04:33:07;90162.97;;;-3.03;96.83
6395;BME280;3230;42.588;23.358;2024-01-15T04:35:32;90166.88;;;-3.00;96.36
6395;BME280;3230;42.588;23.358;2024-01-15T04:37:58;90165.72;;;-3.05;96.41
6395;BME280;3230;42.588;23.358;2024-01-15T04:40:23;90163.59;;;-3.08;96.41
6395;BME280;3230;42.588;23.358;2024-01-15T04:42:49;90151.19;;;-3.11;96.22
6395;BME280;3230;42.588;23.358;2024-01-15T04:45:14;90168.28;;;-3.05;95.79
6395;BME280;3230;42.588;23.358;2024-01-15T04:47:39;90159.81;;;-3.05;95.57
6395;BME280;3230;42.588;23.358;2024-01-15T04:50:05;90170.72;;;-3.10;95.59
6395;BME280;3230;42.588;23.358;2024-01-15T04:52:31;90158.59;;;-3.21;96.09
6395;BME280;3230;42.588;23.358;2024-01-15T04:54:57;90170.56;;;-3.15;95.98
6395;BME280;3230;42.588;23.358;2024-01-15T04:57:22;90175.59;;;-3.27;96.16
6395;BME280;3230;42.588;23.358;2024-01-15T04:59:47;90165.25;;;-3.39;96.69
6395;BME280;3230;42.588;23.358;2024-01-15T05:02:13;90160.22;;;-3.45;97.43
6395;BME280;3230;42.588;23.358;2024-01-15T05:04:38;90159.69;;;-3.54;99.15
6395;BME280;3230;42.588;23.358;2024-01-15T05:07:04;90136.03;;;-3.49;99.95
6395;BME280;3230;42.588;23.358;2024-01-15T05:09:30;90146.28;;;-3.49;100.00
6395;BME280;3230;42.588;23.358;2024-01-15T05:11:55;90124.25;;;-3.57;100.00
6395;BME280;3230;42.588;23.358;2024-01-15T05:14:20;90131.44;;;-3.66;100.00
6395;BME280;3230;42.588;23.358;2024-01-15T05:16:49;90113.66;;;-3.61;100.00
6395;BME280;3230;42.588;23.358;2024-01-15T05:19:15;90133.22;;;-3.66;100.00
6395;BME280;3230;42.588;23.358;2024-01-15T05:21:40;90120.56;;;-3.61;100.00
6395;BME280;3230;42.588;23.358;2024-01-15T05:24:06;90115.81;;;-3.58;100.00
6395;BME280;3230;42.588;23.358;2024-01-15T05:26:31;90112.97;;;-3.49;100.00
6395;BME280;3230;42.588;23.358;2024-01-15T05:28:57;90100.53;;;-3.46;100.00
6395;BME280;3230;42.588;23.358;2024-01-15T05:31:22;90092.50;;;-3.31;100.00
6395;BME280;3230;42.588;23.358;2024-01-15T05:33:48;90093.06;;;-3.29;100.00
6395;BME280;3230;42.588;23.358;2024-01-15T05:36:13;90101.66;;;-3.23;100.00
6395;BME280;3230;42.588;23.358;2024-01-15T05:38:39;90103.84;;;-3.08;98.19
6395;BME280;3230;42.588;23.358;2024-01-15T05:41:05;90116.19;;;-2.98;98.02
6395;BME280;3230;42.588;23.358;2024-01-15T05:43:30;90096.38;;;-2.91;96.78
6395;BME280;3230;42.588;23.358;2024-01-15T05:45:56;90107.41;;;-2.91;96.57
6395;BME280;3230;42.588;23.358;2024-01-15T05:48:21;90101.06;;;-2.88;96.90
6395;BME280;3230;42.588;23.358;2024-01-15T05:50:47;90106.97;;;-2.87;96.41
6395;BME280;3230;42.588;23.358;2024-01-15T05:53:12;90096.53;;;-2.86;96.10
6395;BME280;3230;42.588;23.358;2024-01-15T05:55:38;90101.56;;;-2.79;95.92
6395;BME280;3230;42.588;23.358;2024-01-15T05:58:04;90099.34;;;-2.76;95.96
6395;BME280;3230;42.588;23.358;2024-01-15T06:00:29;90122.41;;;-2.76;95.69
6395;BME280;3230;42.588;23.358;2024-01-15T06:02:55;90125.97;;;-2.77;95.73
6395;BME280;3230;42.588;23.358;2024-01-15T06:05:20;90122.41;;;-2.76;95.59
6395;BME280;3230;42.588;23.358;2024-01-15T06:07:45;90115.72;;;-2.77;95.54
6395;BME280;3230;42.588;23.358;2024-01-15T06:10:11;90105.13;;;-2.80;95.22
6395;BME280;3230;42.588;23.358;2024-01-15T06:12:36;90111.53;;;-2.71;95.09
6395;BME280;3230;42.588;23.358;2024-01-15T06:15:02;90113.91;;;-2.58;95.10
6395;BME280;3230;42.588;23.358;2024-01-15T06:17:27;90117.13;;;-2.62;95.13
6395;BME280;3230;42.588;23.358;2024-01-15T06:19:53;90103.81;;;-2.41;94.20
6395;BME280;3230;42.588;23.358;2024-01-15T06:22:18;90129.41;;;-2.34;94.69
6395;BME280;3230;42.588;23.358;2024-01-15T06:24:43;90102.91;;;-2.04;93.20
6395;BME280;3230;42.588;23.358;2024-01-15T06:27:09;90128.97;;;-1.88;92.15
6395;BME280;3230;42.588;23.358;2024-01-15T06:29:37;90115.44;;;-1.72;91.53
6395;BME280;3230;42.588;23.358;2024-01-15T06:32:04;90124.09;;;-1.54;90.97
6395;BME280;3230;42.588;23.358;2024-01-15T06:34:29;90105.97;;;-1.48;89.54
6395;BME280;3230;42.588;23.358;2024-01-15T06:36:55;90120.81;;;-1.38;90.57
6395;BME280;3230;42.588;23.358;2024-01-15T06:39:20;90107.88;;;-1.19;88.63
6395;BME280;3230;42.588;23.358;2024-01-15T06:41:46;90106.25;;;-1.08;88.74
6395;BME280;3230;42.588;23.358;2024-01-15T06:44:11;90090.16;;;-0.92;88.74
6395;BME280;3230;42.588;23.358;2024-01-15T06:46:45;90111.50;;;-0.91;89.83
6395;BME280;3230;42.588;23.358;2024-01-15T06:49:10;90109.47;;;-0.77;88.38
6395;BME280;3230;42.588;23.358;2024-01-15T06:51:36;90120.00;;;-0.50;83.78
6395;BME280;3230;42.588;23.358;2024-01-15T06:54:08;90118.78;;;-0.47;85.14
6395;BME280;3230;42.588;23.358;2024-01-15T06:56:34;90116.78;;;-0.28;85.50
6395;BME280;3230;42.588;23.358;2024-01-15T06:58:59;90112.91;;;-0.14;81.15
6395;BME280;3230;42.588;23.358;2024-01-15T07:01:25;90132.44;;;-0.18;83.57
6395;BME280;3230;42.588;23.358;2024-01-15T07:03:50;90124.50;;;0.01;80.56
6395;BME280;3230;42.588;23.358;2024-01-15T07:06:16;90137.28;;;-0.05;80.90
6395;BME280;3230;42.588;23.358;2024-01-15T07:08:42;90128.97;;;0.05;83.32
6395;BME280;3230;42.588;23.358;2024-01-15T07:11:07;90126.72;;;0.26;79.81
6395;BME280;3230;42.588;23.358;2024-01-15T07:13:33;90122.88;;;0.11;81.48
6395;BME280;3230;42.588;23.358;2024-01-15T07:15:59;90112.00;;;0.09;78.95
6395;BME280;3230;42.588;23.358;2024-01-15T07:18:25;90124.81;;;0.04;82.15
6395;BME280;3230;42.588;23.358;2024-01-15T07:20:51;90108.38;;;0.22;78.19
6395;BME280;3230;42.588;23.358;2024-01-15T07:23:16;90132.16;;;-0.05;80.03
6395;BME280;3230;42.588;23.358;2024-01-15T07:25:43;90125.56;;;-0.12;82.37
6395;BME280;3230;42.588;23.358;2024-01-15T07:28:08;90126.50;;;-0.02;81.12
6395;BME280;3230;42.588;23.358;2024-01-15T07:30:34;90115.44;;;-0.02;79.42
6395;BME280;3230;42.588;23.358;2024-01-15T07:32:59;90119.91;;;0.03;79.15
6395;BME280;3230;42.588;23.358;2024-01-15T07:35:25;90129.69;;;0.35;78.60
6395;BME280;3230;42.588;23.358;2024-01-15T07:37:50;90140.44;;;0.31;80.83
6395;BME280;3230;42.588;23.358;2024-01-15T07:40:15;90127.78;;;0.13;80.04
6395;BME280;3230;42.588;23.358;2024-01-15T07:42:41;90141.38;;;0.25;81.37
6395;BME280;3230;42.588;23.358;2024-01-15T07:45:08;90135.47;;;0.42;80.18
6395;BME280;3230;42.588;23.358;2024-01-15T07:47:34;90115.16;;;0.28;81.54
6395;BME280;3230;42.588;23.358;2024-01-15T07:49:59;90127.50;;;0.60;80.34
6395;BME280;3230;42.588;23.358;2024-01-15T07:52:25;90138.13;;;0.64;79.05
6395;BME280;3230;42.588;23.358;2024-01-15T07:54:50;90142.81;;;0.50;81.66
6395;BME280;3230;42.588;23.358;2024-01-15T07:57:16;90151.38;;;0.90;77.77
6395;BME280;3230;42.588;23.358;2024-01-15T07:59:41;90152.94;;;0.91;77.67
6395;BME280;3230;42.588;23.358;2024-01-15T08:02:07;90136.03;;;1.00;74.92
6395;BME280;3230;42.588;23.358;2024-01-15T08:04:32;90132.59;;;0.94;76.79
6395;BME280;3230;42.588;23.358;2024-01-15T08:06:57;90120.69;;;1.10;77.31
6395;BME280;3230;42.588;23.358;2024-01-15T08:09:24;90126.06;;;0.87;75.83
6395;BME280;3230;42.588;23.358;2024-01-15T08:11:49;90122.00;;;1.13;76.16
6395;BME280;3230;42.588;23.358;2024-01-15T08:14:15;90126.16;;;1.14;76.21
6395;BME280;3230;42.588;23.358;2024-01-15T08:16:40;90129.84;;;1.40;76.78
6395;BME280;3230;42.588;23.358;2024-01-15T08:19:06;90127.06;;;1.69;73.26
6395;BME280;3230;42.588;23.358;2024-01-15T08:21:32;90147.00;;;1.74;73.49
6395;BME280;3230;42.588;23.358;2024-01-15T08:23:59;90135.38;;;1.99;72.08
6395;BME280;3230;42.588;23.358;2024-01-15T08:26:25;90119.44;;;2.39;68.75
6395;BME280;3230;42.588;23.358;2024-01-15T08:28:50;90109.84;;;2.35;68.78
6395;BME280;3230;42.588;23.358;2024-01-15T08:31:16;90114.09;;;2.46;67.26
6395;BME280;3230;42.588;23.358;2024-01-15T08:33:42;90101.56;;;2.05;69.73
6395;BME280;3230;42.588;23.358;2024-01-15T08:36:07;90108.56;;;2.37;68.82
6395;BME280;3230;42.588;23.358;2024-01-15T08:38:33;90089.97;;;2.40;68.92
6395;BME280;3230;42.588;23.358;2024-01-15T08:40:58;90095.44;;;2.44;68.49
6395;BME280;3230;42.588;23.358;2024-01-15T08:43:28;90092.91;;;2.17;66.60
6395;BME280;3230;42.588;23.358;2024-01-15T08:45:53;90084.81;;;2.08;68.46
6395;BME280;3230;42.588;23.358;2024-01-15T08:48:19;90092.72;;;2.29;65.78
6395;BME280;3230;42.588;23.358;2024-01-15T08:50:44;90090.72;;;1.76;68.11
6395;BME280;3230;42.588;23.358;2024-01-15T08:53:13;90080.84;;;1.46;73.19
6395;BME280;3230;42.588;23.358;2024-01-15T08:55:38;90083.78;;;1.32;73.44
6395;BME280;3230;42.588;23.358;2024-01-15T08:58:04;90074.78;;;1.35;71.79
6395;BME280;3230;42.588;23.358;2024-01-15T09:00:29;90076.47;;;2.01;80.58
6395;BME280;3230;42.588;23.358;2024-01-15T09:03:05;90082.63;;;3.08;80.46
6395;BME280;3230;42.588;23.358;2024-01-15T09:05:30;90073.81;;;3.62;76.89
6395;BME280;3230;42.588;23.358;2024-01-15T09:07:56;90075.88;;;3.01;67.02
6395;BME280;3230;42.588;23.358;2024-01-15T09:10:21;90084.91;;;2.94;71.05
6395;BME280;3230;42.588;23.358;2024-01-15T09:12:47;90055.75;;;3.19;72.08
6395;BME280;3230;42.588;23.358;2024-01-15T09:15:14;90054.53;;;3.37;74.48
6395;BME280;3230;42.588;23.358;2024-01-15T09:17:39;90013.25;;;4.14;75.69
6395;BME280;3230;42.588;23.358;2024-01-15T09:20:05;90012.94;;;4.57;74.16
6395;BME280;3230;42.588;23.358;2024-01-15T09:22:31;89993.66;;;5.00;73.29
6395;BME280;3230;42.588;23.358;2024-01-15T09:24:58;89988.56;;;5.34;71.25
6395;BME280;3230;42.588;23.358;2024-01-15T09:27:24;89995.25;;;5.45;70.14
6395;BME280;3230;42.588;23.358;2024-01-15T09:29:51;89988.72;;;5.58;69.07
6395;BME280;3230;42.588;23.358;2024-01-15T09:32:17;89986.09;;;5.64;68.83
6395;BME280;3230;42.588;23.358;2024-01-15T09:34:42;89987.59;;;5.70;67.70
6395;BME280;3230;42.588;23.358;2024-01-15T09:37:07;89998.72;;;5.86;67.59
6395;BME280;3230;42.588;23.358;2024-01-15T09:39:33;89988.31;;;5.86;67.79
6395;BME280;3230;42.588;23.358;2024-01-15T09:41:59;89999.16;;;5.98;67.20
6395;BME280;3230;42.588;23.358;2024-01-15T09:44:25;89982.56;;;5.89;67.65
6395;BME280;3230;42.588;23.358;2024-01-15T09:46:51;89990.88;;;5.91;68.00
6395;BME280;3230;42.588;23.358;2024-01-15T09:49:17;90002.53;;;5.99;67.80
6395;BME280;3230;42.588;23.358;2024-01-15T09:51:43;89990.44;;;5.79;68.55
6395;BME280;3230;42.588;23.358;2024-01-15T09:54:09;89946.38;;;5.92;67.74
6395;BME280;3230;42.588;23.358;2024-01-15T09:56:35;89954.19;;;5.92;67.82
6395;BME280;3230;42.588;23.358;2024-01-15T09:59:01;89953.31;;;6.07;67.68
6395;BME280;3230;42.588;23.358;2024-01-15T10:01:27;89960.31;;;6.42;66.88
6395;BME280;3230;42.588;23.358;2024-01-15T10:03:54;89967.25;;;6.51;65.71
6395;BME280;3230;42.588;23.358;2024-01-15T10:06:21;89937.53;;;6.28;65.66
6395;BME280;3230;42.588;23.358;2024-01-15T10:08:51;89938.63;;;6.51;64.42
6395;BME280;3230;42.588;23.358;2024-01-15T10:11:17;89973.44;;;6.61;64.37
6395;BME280;3230;42.588;23.358;2024-01-15T10:13:46;89934.75;;;6.49;66.12
6395;BME280;3230;42.588;23.358;2024-01-15T10:16:12;89935.94;;;6.62;66.01
6395;BME280;3230;42.588;23.358;2024-01-15T10:18:38;89935.13;;;6.91;67.16
6395;BME280;3230;42.588;23.358;2024-01-15T10:21:06;89947.47;;;7.04;66.19
6395;BME280;3230;42.588;23.358;2024-01-15T10:23:32;89935.28;;;6.99;65.55
6395;BME280;3230;42.588;23.358;2024-01-15T10:25:58;89933.13;;;7.07;67.63
6395;BME280;3230;42.588;23.358;2024-01-15T10:28:26;89915.78;;;7.16;66.84
6395;BME280;3230;42.588;23.358;2024-01-15T10:30:56;89927.44;;;7.43;67.24
6395;BME280;3230;42.588;23.358;2024-01-15T10:33:22;89898.72;;;7.48;65.29
6395;BME280;3230;42.588;23.358;2024-01-15T10:35:53;89914.63;;;7.46;65.78
6395;BME280;3230;42.588;23.358;2024-01-15T10:38:20;89890.53;;;7.35;65.77
6395;BME280;3230;42.588;23.358;2024-01-15T10:40:48;89891.25;;;7.41;66.56
6395;BME280;3230;42.588;23.358;2024-01-15T10:43:15;89858.88;;;7.28;66.33
6395;BME280;3230;42.588;23.358;2024-01-15T10:45:46;89867.28;;;7.39;66.39
6395;BME280;3230;42.588;23.358;2024-01-15T10:48:12;89866.53;;;7.39;65.79
6395;BME280;3230;42.588;23.358;2024-01-15T10:50:38;89877.56;;;7.30;66.29
6395;BME280;3230;42.588;23.358;2024-01-15T10:53:04;89882.03;;;7.30;64.98
6395;BME280;3230;42.588;23.358;2024-01-15T10:55:34;89863.16;;;7.19;63.81
6395;BME280;3230;42.588;23.358;2024-01-15T10:58:00;89880.88;;;7.17;65.17
6395;BME280;3230;42.588;23.358;2024-01-15T11:00:26;89874.03;;;7.02;63.80
6395;BME280;3230;42.588;23.358;2024-01-15T11:02:53;89878.19;;;7.03;65.28
6395;BME280;3230;42.588;23.358;2024-01-15T11:05:22;89868.75;;;7.07;63.94
6395;BME280;3230;42.588;23.358;2024-01-15T11:07:54;89874.34;;;7.19;63.62
6395;BME280;3230;42.588;23.358;2024-01-15T11:10:48;89865.88;;;7.09;64.74
6395;BME280;3230;42.588;23.358;2024-01-15T11:13:21;89843.69;;;7.30;64.09
6395;BME280;3230;42.588;23.358;2024-01-15T11:16:03;89841.19;;;7.25;62.80
6395;BME280;3230;42.588;23.358;2024-01-15T11:18:35;89842.56;;;7.36;61.61
6395;BME280;3230;42.588;23.358;2024-01-15T11:23:43;89843.56;;;7.41;61.06
6395;BME280;3230;42.588;23.358;2024-01-15T11:26:37;89848.69;;;7.46;59.49
6395;BME280;3230;42.588;23.358;2024-01-15T11:29:07;89857.56;;;7.64;59.32
6395;BME280;3230;42.588;23.358;2024-01-15T11:34:10;89856.97;;;7.67;58.83
6395;BME280;3230;42.588;23.358;2024-01-15T11:42:01;89839.97;;;7.89;59.14
6395;BME280;3230;42.588;23.358;2024-01-15T11:44:28;89847.16;;;7.78;59.01
6395;BME280;3230;42.588;23.358;2024-01-15T11:47:07;89823.78;;;7.73;60.17
6395;BME280;3230;42.588;23.358;2024-01-15T11:50:18;89847.22;;;7.92;58.44
6395;BME280;3230;42.588;23.358;2024-01-15T11:52:20;89845.94;;;7.56;58.30
6395;BME280;3230;42.588;23.358;2024-01-15T11:57:52;89812.03;;;7.56;60.23
6395;BME280;3230;42.588;23.358;2024-01-15T12:00:19;89847.66;;;7.47;60.10
6395;BME280;3230;42.588;23.358;2024-01-15T12:02:47;89847.81;;;7.17;61.45
6395;BME280;3230;42.588;23.358;2024-01-15T12:05:14;89839.13;;;7.03;63.69
6395;BME280;3230;42.588;23.358;2024-01-15T12:07:41;89837.81;;;7.25;63.78
6395;BME280;3230;42.588;23.358;2024-01-15T12:10:33;89822.28;;;6.95;65.44
6395;BME280;3230;42.588;23.358;2024-01-15T12:13:11;89805.75;;;6.86;66.45
6395;BME280;3230;42.588;23.358;2024-01-15T12:15:38;89780.53;;;6.62;67.72
6395;BME280;3230;42.588;23.358;2024-01-15T12:18:08;89801.78;;;6.69;68.54
6395;BME280;3230;42.588;23.358;2024-01-15T12:20:33;89780.19;;;6.69;68.11
6395;BME280;3230;42.588;23.358;2024-01-15T12:23:00;89768.09;;;6.59;68.46
6395;BME280;3230;42.588;23.358;2024-01-15T12:25:26;89799.75;;;6.66;70.41
6395;BME280;3230;42.588;23.358;2024-01-15T12:27:52;89808.69;;;6.60;69.96
6395;BME280;3230;42.588;23.358;2024-01-15T12:30:18;89808.34;;;6.67;71.48
6395;BME280;3230;42.588;23.358;2024-01-15T12:32:44;89817.72;;;5.90;65.73
6395;BME280;3230;42.588;23.358;2024-01-15T12:35:10;89836.22;;;5.83;63.26
6395;BME280;3230;42.588;23.358;2024-01-15T12:37:37;89828.00;;;5.41;66.54
6395;BME280;3230;42.588;23.358;2024-01-15T12:40:04;89826.72;;;5.39;66.52
6395;BME280;3230;42.588;23.358;2024-01-15T12:42:32;89816.03;;;5.06;65.94
6395;BME280;3230;42.588;23.358;2024-01-15T12:44:58;89821.22;;;5.06;71.82
6395;BME280;3230;42.588;23.358;2024-01-15T12:47:24;89807.50;;;5.00;69.88
6395;BME280;3230;42.588;23.358;2024-01-15T12:49:52;89799.38;;;4.67;75.12
6395;BME280;3230;42.588;23.358;2024-01-15T12:52:20;89814.56;;;4.94;76.71
6395;BME280;3230;42.588;23.358;2024-01-15T12:54:49;89810.53;;;5.12;75.18
6395;BME280;3230;42.588;23.358;2024-01-15T12:57:16;89814.19;;;5.06;75.11
6395;BME280;3230;42.588;23.358;2024-01-15T12:59:41;89795.41;;;5.20;72.24
6395;BME280;3230;42.588;23.358;2024-01-15T13:02:06;89808.63;;;5.23;75.70
6395;BME280;3230;42.588;23.358;2024-01-15T13:04:32;89798.66;;;5.36;75.22
6395;BME280;3230;42.588;23.358;2024-01-15T13:06:58;89798.38;;;5.42;73.65
6395;BME280;3230;42.588;23.358;2024-01-15T13:09:23;89795.66;;;5.58;70.94
6395;BME280;3230;42.588;23.358;2024-01-15T13:11:48;89791.66;;;5.36;72.90
6395;BME280;3230;42.588;23.358;2024-01-15T13:14:14;89790.72;;;5.56;73.57
6395;BME280;3230;42.588;23.358;2024-01-15T13:16:42;89789.94;;;5.56;74.50
6395;BME280;3230;42.588;23.358;2024-01-15T13:19:09;89781.78;;;5.68;74.22
6395;BME280;3230;42.588;23.358;2024-01-15T13:21:39;89788.56;;;5.69;75.06